Time;durP1;ratioP1;P1;durP2;ratioP2;P2;SDS_P1;SDS_P2;PMS_P1;PMS_P2;Temp;Humidity;BMP_temperature;BMP_pressure;BME280_temperature;BME280_humidity;BME280_pressure;Samples;Min_cycle;Max_cycle;Signal;HPM_P1;HPM_P2
2023/10/08 00:02:11;;;;;;;0.95;0.47;;;;;;;9.22;nan;100575.84;2102420;28;20052;-73
2023/10/08 00:03:22;;;;;;;1.92;0.20;;;;;;;9.23;nan;100582.81;2089787;28;20104;-72
2023/10/08 00:04:24;;;;;;;0.28;0.20;;;;;;;9.23;nan;100582.81;2085253;28;20858;-73
2023/10/08 00:05:27;;;;;;;1.27;0.30;;;;;;;9.25;nan;100592.19;2098950;28;20107;-72
2023/10/08 00:06:33;;;;;;;1.95;0.30;;;;;;;9.29;nan;100589.78;2108871;28;20978;-72
2023/10/08 00:07:42;;;;;;;1.30;0.20;;;;;;;9.34;nan;100597.03;2115455;28;20024;-72
2023/10/08 00:08:44;;;;;;;1.50;0.30;;;;;;;9.30;nan;100588.72;2100131;28;20040;-72
2023/10/08 00:09:53;;;;;;;1.23;0.60;;;;;;;9.33;nan;100593.56;2100188;28;20032;-72
2023/10/08 00:10:56;;;;;;;0.57;0.20;;;;;;;9.31;nan;100590.31;2102498;28;20017;-72
2023/10/08 00:12:01;;;;;;;1.85;0.30;;;;;;;9.31;nan;100594.91;2098824;28;20036;-74
2023/10/08 00:13:08;;;;;;;3.90;0.40;;;;;;;9.34;nan;100595.16;2107243;28;20137;-72
2023/10/08 00:14:12;;;;;;;3.47;0.32;;;;;;;9.33;nan;100588.19;2099451;28;20021;-72
2023/10/08 00:15:19;;;;;;;2.90;0.20;;;;;;;9.32;nan;100594.63;2091203;28;20909;-72
2023/10/08 00:16:21;;;;;;;0.45;0.20;;;;;;;9.23;nan;100582.81;2092055;28;20841;-72
2023/10/08 00:17:24;;;;;;;1.30;0.40;;;;;;;9.22;nan;100592.75;2099081;28;20103;-72
2023/10/08 00:18:33;;;;;;;2.33;0.32;;;;;;;9.21;nan;100598.38;2090094;28;20114;-72
2023/10/08 00:19:36;;;;;;;0.68;0.20;;;;;;;9.17;nan;100594.59;2085826;28;20030;-72
2023/10/08 00:22:08;;;;;;;;;;;;;;;9.11;nan;100590.31;2073059;28;20152;-72
2023/10/08 00:23:10;;;;;;;0.43;0.30;;;;;;;9.11;nan;100590.31;2098997;28;19943;-72
2023/10/08 00:24:12;;;;;;;1.08;0.25;;;;;;;9.10;nan;100594.06;2098240;28;20021;-71
2023/10/08 00:25:17;;;;;;;2.05;0.20;;;;;;;9.12;nan;100597.31;2091394;28;20087;-71
2023/10/08 00:26:27;;;;;;;1.80;0.32;;;;;;;9.12;nan;100591.94;2093613;28;20033;-72
2023/10/08 00:27:38;;;;;;;2.13;0.30;;;;;;;9.13;nan;100605.06;2085254;28;21206;-72
2023/10/08 00:28:43;;;;;;;2.15;0.32;;;;;;;9.14;nan;100600.50;2098574;28;20033;-72
2023/10/08 00:29:48;;;;;;;1.58;0.35;;;;;;;9.18;nan;100596.25;2098860;28;20020;-73
2023/10/08 00:30:53;;;;;;;0.45;0.20;;;;;;;9.20;nan;100591.38;2090794;28;20200;-72
2023/10/08 00:31:57;;;;;;;0.98;0.30;;;;;;;9.16;nan;100580.41;2083524;28;21007;-72
2023/10/08 00:32:58;;;;;;;2.17;0.55;;;;;;;9.23;nan;100597.03;2082193;28;20029;-72
2023/10/08 00:34:04;;;;;;;1.27;0.40;;;;;;;9.22;nan;100598.09;2098472;28;20021;-73
2023/10/08 00:35:12;;;;;;;2.30;0.35;;;;;;;9.21;nan;100601.88;2100376;28;20064;-72
2023/10/08 00:36:18;;;;;;;1.48;0.30;;;;;;;9.21;nan;100595.69;2098208;28;20033;-73
2023/10/08 00:37:23;;;;;;;0.90;0.30;;;;;;;9.20;nan;100600.22;2090953;28;20024;-73
2023/10/08 00:38:32;;;;;;;2.17;0.25;;;;;;;9.19;nan;100600.53;2099559;28;20164;-72
2023/10/08 00:39:38;;;;;;;1.20;0.32;;;;;;;9.16;nan;100603.75;2107005;28;20032;-72
2023/10/08 00:40:42;;;;;;;0.98;0.30;;;;;;;9.13;nan;100599.72;2106025;28;20040;-72
2023/10/08 00:41:47;;;;;;;0.65;0.20;;;;;;;9.09;nan;100604.00;2090825;28;21249;-72
2023/10/08 00:42:56;;;;;;;1.83;0.55;;;;;;;9.04;nan;100604.78;2099009;28;20072;-72
2023/10/08 00:44:05;;;;;;;0.25;0.10;;;;;;;9.02;nan;100603.47;2101328;28;20043;-72
2023/10/08 00:45:13;;;;;;;1.63;0.30;;;;;;;9.02;nan;100614.19;2107804;28;20039;-71
2023/10/08 00:47:26;;;;;;;1.35;0.30;;;;;;;9.01;nan;100607.19;2106811;28;20118;-72
2023/10/08 00:48:43;;;;;;;1.35;0.40;;;;;;;8.99;nan;100610.16;2099590;28;20144;-72
2023/10/08 00:50:47;;;;;;;0.88;0.20;;;;;;;8.94;nan;100610.16;2107311;28;20029;-73
2023/10/08 00:53:21;;;;;;;0.52;0.10;;;;;;;8.89;nan;100617.38;2090602;28;20028;-73
2023/10/08 00:54:32;;;;;;;3.15;0.30;;;;;;;8.89;nan;100615.53;2108733;28;20103;-73
2023/10/08 00:55:39;;;;;;;1.85;0.22;;;;;;;8.86;nan;100621.41;2100374;28;20037;-73
2023/10/08 00:57:07;;;;;;;5.18;0.30;;;;;;;8.83;nan;100621.94;2098724;28;20107;-74
2023/10/08 00:58:09;;;;;;;1.48;0.20;;;;;;;8.81;nan;100624.88;2092374;28;20025;-71
2023/10/08 00:59:16;;;;;;;1.05;0.20;;;;;;;8.75;nan;100620.56;2090144;28;20025;-73
2023/10/08 01:00:22;;;;;;;0.68;0.30;;;;;;;8.76;nan;100632.09;2090715;28;20033;-71
2023/10/08 01:01:25;;;;;;;1.23;0.30;;;;;;;8.77;nan;100629.16;2082280;28;20038;-71
2023/10/08 01:02:42;;;;;;;1.63;0.30;;;;;;;8.72;nan;100631.00;2081933;28;20065;-71
2023/10/08 01:03:44;;;;;;;0.70;0.10;;;;;;;8.66;nan;100626.72;2086138;28;20041;-71
2023/10/08 01:04:47;;;;;;;3.10;0.32;;;;;;;8.67;nan;100628.31;2090662;28;20017;-71
2023/10/08 01:05:51;;;;;;;1.58;0.20;;;;;;;8.62;nan;100631.78;2081976;28;20033;-71
2023/10/08 01:07:01;;;;;;;0.60;0.38;;;;;;;8.65;nan;100628.59;2083345;28;20040;-71
2023/10/08 01:08:06;;;;;;;;;;;;;;;8.68;nan;100632.63;2091771;28;20044;-71
2023/10/08 01:09:17;;;;;;;1.63;0.40;;;;;;;8.66;nan;100637.44;2091215;28;19979;-71
2023/10/08 01:10:20;;;;;;;0.68;0.13;;;;;;;8.71;nan;100640.94;2091377;28;20037;-71
2023/10/08 01:11:39;;;;;;;1.48;0.40;;;;;;;8.74;nan;100634.25;2092626;28;20021;-71
2023/10/08 01:12:53;;;;;;;3.63;0.40;;;;;;;8.69;nan;100639.59;2094921;28;20187;-71
2023/10/08 01:13:58;;;;;;;1.67;0.20;;;;;;;8.65;nan;100646.56;2098438;28;20032;-71
2023/10/08 01:15:16;;;;;;;2.03;0.30;;;;;;;8.65;nan;100641.19;2098506;28;20041;-71
2023/10/08 01:16:21;;;;;;;1.10;0.20;;;;;;;8.69;nan;100653.00;2086607;28;20770;-71
2023/10/08 01:17:26;;;;;;;2.00;0.30;;;;;;;8.72;nan;100652.47;2090302;28;20041;-69
2023/10/08 01:18:32;;;;;;;2.00;0.20;;;;;;;8.72;nan;100647.09;2090541;28;21285;-70
2023/10/08 01:19:41;;;;;;;2.00;0.40;;;;;;;8.68;nan;100651.38;2083840;28;20094;-70
2023/10/08 01:21:58;;;;;;;2.00;0.40;;;;;;;8.67;nan;100653.25;2090842;28;20679;-69
2023/10/08 01:23:10;;;;;;;0.30;0.25;;;;;;;8.66;nan;100653.50;2076791;28;20027;-69
2023/10/08 01:24:17;;;;;;;1.88;0.30;;;;;;;8.68;nan;100659.44;2094918;28;20099;-70
2023/10/08 01:25:24;;;;;;;3.15;0.30;;;;;;;8.62;nan;100663.97;2097561;28;20092;-71
2023/10/08 01:26:29;;;;;;;0.22;0.10;;;;;;;8.56;nan;100657.75;2092574;28;20933;-71
2023/10/08 01:27:37;;;;;;;1.33;0.30;;;;;;;8.57;nan;100658.56;2107817;28;20032;-71
2023/10/08 01:28:40;;;;;;;0.75;0.13;;;;;;;8.58;nan;100657.53;2098132;28;20044;-71
2023/10/08 01:29:44;;;;;;;3.03;0.32;;;;;;;8.58;nan;100671.72;2098347;28;20149;-75
2023/10/08 01:30:48;;;;;;;1.23;0.30;;;;;;;8.54;nan;100667.13;2098468;28;20044;-74
2023/10/08 01:31:54;;;;;;;0.43;0.17;;;;;;;8.53;nan;100671.69;2098823;28;20040;-73
2023/10/08 01:32:56;;;;;;;0.80;0.30;;;;;;;8.53;nan;100671.69;2090579;28;20184;-73
2023/10/08 01:34:03;;;;;;;0.98;0.20;;;;;;;8.55;nan;100663.41;2098438;28;20879;-75
2023/10/08 01:35:22;;;;;;;1.33;0.30;;;;;;;8.59;nan;100672.53;2106330;28;20087;-73
2023/10/08 01:36:28;;;;;;;0.30;0.20;;;;;;;8.57;nan;100674.66;2101316;28;20036;-72
2023/10/08 01:37:33;;;;;;;2.05;0.40;;;;;;;8.52;nan;100672.75;2098948;28;20029;-73
2023/10/08 01:38:39;;;;;;;1.83;0.38;;;;;;;8.54;nan;100665.28;2099287;28;20024;-74
2023/10/08 01:39:42;;;;;;;0.60;0.28;;;;;;;8.52;nan;100675.44;2090521;28;20155;-74
2023/10/08 01:40:50;;;;;;;0.65;0.20;;;;;;;8.54;nan;100677.84;2091080;28;20038;-72
2023/10/08 01:41:55;;;;;;;1.35;0.25;;;;;;;8.52;nan;100675.44;2081348;28;20022;-71
2023/10/08 01:43:02;;;;;;;2.20;0.30;;;;;;;8.52;nan;100678.13;2083633;28;20144;-72
2023/10/08 01:44:08;;;;;;;0.25;0.20;;;;;;;8.50;nan;100674.88;2098846;28;20029;-72
2023/10/08 01:45:17;;;;;;;0.73;0.25;;;;;;;8.50;nan;100677.56;2099459;28;20041;-72
2023/10/08 01:46:23;;;;;;;0.57;0.10;;;;;;;8.45;nan;100682.09;2099862;28;20103;-71
2023/10/08 01:47:27;;;;;;;0.17;0.10;;;;;;;8.43;nan;100679.69;2090654;28;20906;-72
2023/10/08 01:48:37;;;;;;;1.98;0.20;;;;;;;8.42;nan;100682.63;2098238;28;20037;-72
2023/10/08 01:49:39;;;;;;;0.70;0.20;;;;;;;8.42;nan;100691.47;2083441;28;20057;-72
2023/10/08 01:50:45;;;;;;;0.65;0.13;;;;;;;8.43;nan;100685.03;2082281;28;20026;-72
2023/10/08 01:51:47;;;;;;;0.63;0.20;;;;;;;8.39;nan;100692.00;2090861;28;20064;-72
2023/10/08 01:52:53;;;;;;;1.17;0.30;;;;;;;8.38;nan;100690.38;2089911;28;20053;-72
2023/10/08 01:53:58;;;;;;;0.30;0.20;;;;;;;8.32;nan;100680.66;2081907;28;20100;-72
2023/10/08 01:55:02;;;;;;;0.43;0.20;;;;;;;8.30;nan;100691.66;2087594;28;20795;-72
2023/10/08 01:56:10;;;;;;;1.33;0.20;;;;;;;8.24;nan;100694.56;2115164;28;20024;-71
2023/10/08 01:57:13;;;;;;;1.35;0.15;;;;;;;8.24;nan;100691.88;2105345;28;20035;-72
2023/10/08 01:58:16;;;;;;;0.40;0.20;;;;;;;8.24;nan;100689.22;2089549;28;20048;-72
2023/10/08 01:59:17;;;;;;;0.50;0.20;;;;;;;8.25;nan;100690.81;2090911;28;20057;-72
2023/10/08 02:00:23;;;;;;;1.13;0.20;;;;;;;8.20;nan;100682.75;2106241;28;20020;-72
2023/10/08 02:01:28;;;;;;;1.50;0.35;;;;;;;8.18;nan;100691.03;2099073;28;20903;-71
2023/10/08 02:02:29;;;;;;;2.13;0.40;;;;;;;8.15;nan;100688.88;2098650;28;20118;-71
2023/10/08 02:03:41;;;;;;;0.65;0.15;;;;;;;8.13;nan;100691.00;2089901;28;20033;-71
2023/10/08 02:04:43;;;;;;;0.40;0.25;;;;;;;8.06;nan;100696.59;2100963;28;20135;-71
2023/10/08 02:05:46;;;;;;;0.22;0.15;;;;;;;8.03;nan;100701.66;2098336;28;20831;-71
2023/10/08 02:06:47;;;;;;;0.75;0.22;;;;;;;8.01;nan;100701.94;2081130;28;20034;-71
2023/10/08 02:07:51;;;;;;;1.38;0.40;;;;;;;8.01;nan;100699.25;2081386;28;20037;-71
2023/10/08 02:08:53;;;;;;;0.82;0.40;;;;;;;7.99;nan;100705.91;2098232;28;20036;-74
2023/10/08 02:10:00;;;;;;;2.65;0.32;;;;;;;7.99;nan;100700.56;2097829;28;20025;-74
2023/10/08 02:11:03;;;;;;;1.77;0.30;;;;;;;7.98;nan;100702.44;2082819;28;20140;-74
2023/10/08 02:12:08;;;;;;;1.02;0.20;;;;;;;7.99;nan;100704.03;2093972;28;20103;-71
2023/10/08 02:13:13;;;;;;;0.60;0.25;;;;;;;7.96;nan;100707.25;2097708;28;20064;-71
2023/10/08 02:14:22;;;;;;;;;;;;;;;8.00;nan;100700.28;2076037;28;20042;-71
2023/10/08 02:15:26;;;;;;;1.40;0.20;;;;;;;8.00;nan;100708.31;2092042;28;19920;-71
2023/10/08 02:16:30;;;;;;;0.77;0.20;;;;;;;7.97;nan;100706.16;2089529;28;20038;-71
2023/10/08 02:17:33;;;;;;;1.52;0.30;;;;;;;7.98;nan;100707.81;2082062;28;20861;-71
2023/10/08 02:18:36;;;;;;;0.75;0.22;;;;;;;7.98;nan;100707.81;2073498;28;20041;-71
2023/10/08 02:19:38;;;;;;;2.00;0.20;;;;;;;8.02;nan;100714.25;2090551;28;20888;-71
2023/10/08 02:20:43;;;;;;;1.70;0.50;;;;;;;8.03;nan;100715.84;2097768;28;20044;-71
2023/10/08 02:21:48;;;;;;;1.80;0.28;;;;;;;8.06;nan;100725.25;2090422;28;20820;-71
2023/10/08 02:22:50;;;;;;;4.10;0.40;;;;;;;8.06;nan;100726.03;2090175;28;20079;-71
2023/10/08 02:23:54;;;;;;;1.42;0.30;;;;;;;8.03;nan;100715.03;2082312;28;20144;-71
2023/10/08 02:25:01;;;;;;;1.00;0.20;;;;;;;8.05;nan;100729.78;2081475;28;20022;-72
2023/10/08 02:26:03;;;;;;;1.20;0.22;;;;;;;8.06;nan;100730.59;2098617;28;20064;-73
2023/10/08 02:27:05;;;;;;;2.17;0.20;;;;;;;8.06;nan;100723.38;2096136;28;20033;-71
2023/10/08 02:28:09;;;;;;;1.83;0.30;;;;;;;8.06;nan;100731.41;2089644;28;20036;-74
2023/10/08 02:29:14;;;;;;;1.63;0.60;;;;;;;8.04;nan;100720.16;2091362;28;20033;-72
2023/10/08 02:30:19;;;;;;;1.13;0.20;;;;;;;8.04;nan;100713.97;2090307;28;20068;-72
2023/10/08 02:31:24;;;;;;;2.28;0.30;;;;;;;8.07;nan;100724.16;2091218;28;20327;-71
2023/10/08 02:32:31;;;;;;;1.20;0.20;;;;;;;8.07;nan;100716.97;2090692;28;20025;-71
2023/10/08 02:33:34;;;;;;;4.25;0.45;;;;;;;8.07;nan;100716.97;2074528;28;20200;-72
2023/10/08 02:34:37;;;;;;;1.60;0.30;;;;;;;8.07;nan;100724.16;2073705;28;20160;-72
2023/10/08 02:35:39;;;;;;;1.33;0.20;;;;;;;8.04;nan;100728.19;2073649;28;20027;-71
2023/10/08 02:36:44;;;;;;;1.83;0.52;;;;;;;8.03;nan;100729.25;2074875;28;20093;-74
2023/10/08 02:37:48;;;;;;;2.13;0.38;;;;;;;8.03;nan;100731.91;2081927;28;20037;-71
2023/10/08 02:38:51;;;;;;;0.25;0.10;;;;;;;8.02;nan;100732.19;2082058;28;20151;-74
2023/10/08 02:39:59;;;;;;;2.10;0.30;;;;;;;8.03;nan;100737.28;2090769;28;20033;-71
2023/10/08 02:41:06;;;;;;;0.40;0.20;;;;;;;8.01;nan;100743.97;2098432;28;20037;-71
2023/10/08 02:42:10;;;;;;;3.00;0.30;;;;;;;8.02;nan;100741.03;2084366;28;20045;-71
2023/10/08 02:43:15;;;;;;;0.73;0.68;;;;;;;7.99;nan;100736.19;2082022;28;20030;-73
2023/10/08 02:44:17;;;;;;;0.65;0.20;;;;;;;8.00;nan;100737.78;2081728;28;20869;-71
2023/10/08 02:45:21;;;;;;;1.20;0.30;;;;;;;8.01;nan;100742.09;2083090;28;20065;-71
2023/10/08 02:46:29;;;;;;;0.88;0.30;;;;;;;7.97;nan;100743.66;2089905;28;20122;-70
2023/10/08 02:47:33;;;;;;;0.52;0.20;;;;;;;7.93;nan;100734.53;2100362;28;20014;-71
2023/10/08 02:48:36;;;;;;;0.85;0.35;;;;;;;7.94;nan;100740.69;2114607;28;20028;-71
2023/10/08 02:49:40;;;;;;;0.60;0.28;;;;;;;7.92;nan;100738.28;2106881;28;21073;-70
2023/10/08 02:50:45;;;;;;;2.00;0.50;;;;;;;7.95;nan;100743.13;2106089;28;20748;-70
2023/10/08 02:51:50;;;;;;;1.50;0.30;;;;;;;7.97;nan;100738.28;2089892;28;20037;-70
2023/10/08 02:52:51;;;;;;;1.40;0.20;;;;;;;7.97;nan;100742.84;2098041;28;20021;-70
2023/10/08 02:53:55;;;;;;;1.98;0.30;;;;;;;7.96;nan;100739.38;2097559;28;20080;-71
2023/10/08 02:55:00;;;;;;;1.08;0.30;;;;;;;7.97;nan;100748.19;2098674;28;20079;-69
2023/10/08 02:56:12;;;;;;;2.08;0.30;;;;;;;8.00;nan;100753.84;2097751;28;20037;-70
2023/10/08 02:57:16;;;;;;;1.05;0.10;;;;;;;7.99;nan;100754.13;2089625;28;20034;-69
2023/10/08 02:58:21;;;;;;;2.17;0.30;;;;;;;7.95;nan;100756.50;2090477;28;20889;-69
2023/10/08 02:59:39;;;;;;;0.80;0.22;;;;;;;7.95;nan;100753.03;2106064;28;20037;-69
2023/10/08 03:00:47;;;;;;;0.43;0.20;;;;;;;7.90;nan;100749.22;2105988;28;20142;-70
2023/10/08 03:01:55;;;;;;;1.10;0.20;;;;;;;7.92;nan;100748.97;2106462;28;20064;-70
2023/10/08 03:03:01;;;;;;;0.35;0.20;;;;;;;7.90;nan;100751.91;2098796;28;20033;-70
2023/10/08 03:04:14;;;;;;;0.57;0.22;;;;;;;7.93;nan;100763.97;2081994;28;20160;-70
2023/10/08 03:05:17;;;;;;;0.95;0.30;;;;;;;7.89;nan;100757.53;2086699;28;20042;-70
2023/10/08 03:06:22;;;;;;;1.08;0.30;;;;;;;7.91;nan;100763.41;2097348;28;20122;-70
2023/10/08 03:07:33;;;;;;;1.38;0.15;;;;;;;7.92;nan;100762.38;2089773;28;20809;-70
2023/10/08 03:08:41;;;;;;;0.88;0.30;;;;;;;7.90;nan;100759.13;2092684;28;20314;-70
2023/10/08 03:09:43;;;;;;;0.75;0.30;;;;;;;7.91;nan;100766.09;2081820;28;20049;-70
2023/10/08 03:10:45;;;;;;;1.65;0.25;;;;;;;7.92;nan;100767.72;2081291;28;20198;-70
2023/10/08 03:11:49;;;;;;;0.82;0.30;;;;;;;7.92;nan;100766.91;2089321;28;20041;-70
2023/10/08 03:12:54;;;;;;;0.63;0.40;;;;;;;7.94;nan;100770.13;2104374;28;20023;-70
2023/10/08 03:13:56;;;;;;;0.40;0.20;;;;;;;7.92;nan;100762.38;2098080;28;20065;-70
2023/10/08 03:15:12;;;;;;;0.60;0.20;;;;;;;7.89;nan;100762.88;2097731;28;20025;-70
2023/10/08 03:16:21;;;;;;;1.55;0.35;;;;;;;7.91;nan;100760.72;2086144;28;20038;-71
2023/10/08 03:17:23;;;;;;;0.52;0.20;;;;;;;7.92;nan;100767.72;2091285;28;20120;-71
2023/10/08 03:18:25;;;;;;;0.32;0.10;;;;;;;7.93;nan;100768.53;2097733;28;20872;-71
2023/10/08 03:19:27;;;;;;;1.13;0.30;;;;;;;7.93;nan;100765.84;2081080;28;20136;-70
2023/10/08 03:20:29;;;;;;;1.42;0.20;;;;;;;7.94;nan;100757.53;2081589;28;20034;-70
2023/10/08 03:22:45;;;;;;;0.85;0.30;;;;;;;7.95;nan;100761.84;2106332;28;20028;-71
2023/10/08 03:23:47;;;;;;;2.47;0.20;;;;;;;7.92;nan;100762.38;2107741;28;20021;-70
2023/10/08 03:24:50;;;;;;;0.70;0.13;;;;;;;7.93;nan;100763.97;2116229;28;20020;-70
2023/10/08 03:26:32;;;;;;;0.45;0.17;;;;;;;7.94;nan;100775.50;2106943;28;20039;-72
2023/10/08 03:27:41;;;;;;;0.65;0.30;;;;;;;7.89;nan;100769.03;2103220;28;20925;-70
2023/10/08 03:28:57;;;;;;;1.40;0.20;;;;;;;7.88;nan;100777.31;2100855;28;21235;-70
2023/10/08 03:30:03;;;;;;;0.30;0.20;;;;;;;7.83;nan;100779.97;2107279;28;20039;-72
2023/10/08 03:31:15;;;;;;;0.73;0.20;;;;;;;7.78;nan;100780.72;2099396;28;20807;-72
2023/10/08 03:32:18;;;;;;;1.35;0.22;;;;;;;7.73;nan;100785.22;2107657;28;20017;-72
2023/10/08 03:33:23;;;;;;;0.73;0.30;;;;;;;7.73;nan;100780.69;2107681;28;20021;-72
2023/10/08 03:34:33;;;;;;;1.85;0.20;;;;;;;7.74;nan;100781.47;2099537;28;20072;-70
2023/10/08 03:35:37;;;;;;;0.15;0.10;;;;;;;7.74;nan;100781.47;2101220;28;20032;-73
2023/10/08 03:36:44;;;;;;;0.30;0.20;;;;;;;7.70;nan;100783.06;2097782;28;20244;-72
2023/10/08 03:37:50;;;;;;;0.45;0.10;;;;;;;7.68;nan;100788.66;2083899;28;20026;-73
2023/10/08 03:38:57;;;;;;;0.32;0.20;;;;;;;7.66;nan;100788.91;2086206;28;20296;-72
2023/10/08 03:40:25;;;;;;;1.75;0.50;;;;;;;7.66;nan;100791.59;2100227;28;20025;-72
2023/10/08 03:41:29;;;;;;;0.28;0.10;;;;;;;7.65;nan;100789.97;2094344;28;20021;-72
2023/10/08 03:42:34;;;;;;;0.75;0.28;;;;;;;7.63;nan;100785.94;2096142;28;20234;-72
2023/10/08 03:44:21;;;;;;;1.83;0.30;;;;;;;7.68;nan;100794.00;2082907;28;20034;-72
2023/10/08 03:45:09;;;;;;;0.77;0.73;;;;;;;7.70;nan;100797.25;2085265;28;20255;-72
2023/10/08 03:46:17;;;;;;;0.88;0.17;;;;;;;7.73;nan;100798.63;2107674;28;20077;-71
2023/10/08 03:47:22;;;;;;;2.20;0.20;;;;;;;7.73;nan;100791.38;2098954;28;20048;-73
2023/10/08 03:48:25;;;;;;;0.77;0.40;;;;;;;7.76;nan;100790.06;2091798;28;20040;-73
2023/10/08 03:49:31;;;;;;;1.30;0.20;;;;;;;7.74;nan;100792.19;2098953;28;20021;-73
2023/10/08 03:50:40;;;;;;;1.48;0.28;;;;;;;7.74;nan;100786.84;2091243;28;21060;-73
2023/10/08 03:51:43;;;;;;;0.40;0.25;;;;;;;7.69;nan;100781.41;2093661;28;20041;-73
2023/10/08 03:52:46;;;;;;;0.32;0.20;;;;;;;7.68;nan;100780.63;2099116;28;20158;-73
2023/10/08 03:56:20;;;;;;;1.25;0.30;;;;;;;7.72;nan;100796.97;2108025;28;20024;-73
2023/10/08 03:57:28;;;;;;;0.52;0.20;;;;;;;7.72;nan;100789.75;2097996;28;20053;-76
2023/10/08 03:58:40;;;;;;;0.30;0.20;;;;;;;7.72;nan;100788.94;2093209;28;20053;-71
2023/10/08 03:59:42;;;;;;;1.30;0.20;;;;;;;7.72;nan;100795.09;2091810;28;20075;-71
2023/10/08 04:00:45;;;;;;;2.95;0.40;;;;;;;7.73;nan;100798.63;2082429;28;20109;-71
2023/10/08 04:01:54;;;;;;;4.47;0.30;;;;;;;7.74;nan;100803.69;2091345;28;20222;-72
2023/10/08 04:03:00;;;;;;;1.48;0.30;;;;;;;7.68;nan;100793.19;2083665;28;20881;-72
2023/10/08 04:04:02;;;;;;;0.93;0.30;;;;;;;7.73;nan;100791.38;2090923;28;20041;-72
2023/10/08 04:05:18;;;;;;;5.07;0.82;;;;;;;7.71;nan;100796.16;2090758;28;20897;-72
2023/10/08 04:06:37;;;;;;;0.80;0.20;;;;;;;7.66;nan;100786.25;2101976;28;20044;-72
2023/10/08 04:08:05;;;;;;;0.98;0.30;;;;;;;7.63;nan;100802.81;2091414;28;20037;-72
2023/10/08 04:09:23;;;;;;;0.40;0.30;;;;;;;7.63;nan;100800.13;2102547;28;20028;-72
2023/10/08 04:11:07;;;;;;;1.08;0.30;;;;;;;7.64;nan;100803.59;2107788;28;20036;-72
2023/10/08 04:12:10;;;;;;;1.85;0.30;;;;;;;7.62;nan;100803.84;2107477;28;20028;-72
2023/10/08 04:13:16;;;;;;;1.38;0.43;;;;;;;7.62;nan;100811.88;2105938;28;20046;-72
2023/10/08 04:14:19;;;;;;;1.73;0.43;;;;;;;7.62;nan;100806.50;2098603;28;20775;-72
2023/10/08 04:15:23;;;;;;;1.73;0.30;;;;;;;7.59;nan;100800.88;2090734;28;20103;-72
2023/10/08 04:16:27;;;;;;;0.98;0.30;;;;;;;7.56;nan;100807.53;2099360;28;20176;-72
2023/10/08 04:17:36;;;;;;;2.05;0.25;;;;;;;7.55;nan;100811.28;2107120;28;20024;-72
2023/10/08 04:18:42;;;;;;;3.45;0.30;;;;;;;7.56;nan;100820.91;2107070;28;20855;-72
2023/10/08 04:19:44;;;;;;;0.40;0.20;;;;;;;7.55;nan;100821.16;2107151;28;20029;-73
2023/10/08 04:21:00;;;;;;;0.57;0.20;;;;;;;7.50;nan;100819.22;2107107;28;20052;-72
2023/10/08 04:22:03;;;;;;;5.20;0.40;;;;;;;7.50;nan;100821.91;2107163;28;20862;-73
2023/10/08 04:23:13;;;;;;;1.63;0.30;;;;;;;7.49;nan;100822.16;2107085;28;20807;-74
2023/10/08 04:24:19;;;;;;;0.88;0.20;;;;;;;7.48;nan;100821.38;2107843;28;20032;-74
2023/10/08 04:25:25;;;;;;;2.20;0.20;;;;;;;7.48;nan;100824.03;2098652;28;20115;-73
2023/10/08 04:26:26;;;;;;;1.27;0.30;;;;;;;7.51;nan;100828.91;2092204;28;20104;-73
2023/10/08 04:27:33;;;;;;;1.00;0.28;;;;;;;7.53;nan;100817.94;2098779;28;20181;-72
2023/10/08 04:28:35;;;;;;;0.65;0.20;;;;;;;7.55;nan;100823.84;2082694;28;20762;-72
2023/10/08 04:29:37;;;;;;;0.93;0.40;;;;;;;7.54;nan;100820.38;2082449;28;20026;-72
2023/10/08 04:30:41;;;;;;;0.93;0.30;;;;;;;7.54;nan;100819.56;2082148;28;20085;-72
2023/10/08 04:31:46;;;;;;;0.55;0.20;;;;;;;7.53;nan;100818.72;2090914;28;20037;-72
2023/10/08 04:32:52;;;;;;;1.08;0.40;;;;;;;7.56;nan;100823.56;2090668;28;20184;-72
2023/10/08 04:34:00;;;;;;;0.73;0.25;;;;;;;7.56;nan;100818.22;2083284;28;21227;-72
2023/10/08 04:35:07;;;;;;;0.43;0.20;;;;;;;7.60;nan;100824.72;2094029;28;20021;-72
2023/10/08 04:36:09;;;;;;;1.55;0.20;;;;;;;7.63;nan;100815.38;2108101;28;20043;-72
2023/10/08 04:37:12;;;;;;;0.57;0.30;;;;;;;7.63;nan;100826.88;2106905;28;20044;-72
2023/10/08 04:38:19;;;;;;;0.77;0.30;;;;;;;7.63;nan;100823.41;2105213;28;20047;-72
2023/10/08 04:39:33;;;;;;;1.00;0.20;;;;;;;7.65;nan;100829.28;2099184;28;20037;-72
2023/10/08 04:40:55;;;;;;;2.45;0.50;;;;;;;7.60;nan;100832.75;2102308;28;20067;-72
2023/10/08 04:42:00;;;;;;;0.50;0.30;;;;;;;7.60;nan;100830.06;2101230;28;20021;-72
2023/10/08 04:43:05;;;;;;;1.27;0.38;;;;;;;7.61;nan;100830.88;2099294;28;20084;-71
2023/10/08 04:44:14;;;;;;;0.52;0.40;;;;;;;7.62;nan;100829.81;2098505;28;20025;-71
2023/10/08 04:45:26;;;;;;;1.42;0.40;;;;;;;7.59;nan;100828.44;2092103;28;20034;-71
2023/10/08 04:46:46;;;;;;;1.40;0.38;;;;;;;7.56;nan;100826.25;2100357;28;20854;-71
2023/10/08 04:47:49;;;;;;;1.88;0.65;;;;;;;7.59;nan;100839.13;2106908;28;20032;-71
2023/10/08 04:48:53;;;;;;;1.55;0.30;;;;;;;7.58;nan;100832.16;2090149;28;20025;-71
2023/10/08 04:49:56;;;;;;;0.57;0.28;;;;;;;7.57;nan;100838.59;2082651;28;20796;-71
2023/10/08 04:50:59;;;;;;;1.90;0.40;;;;;;;7.58;nan;100837.53;2082919;28;20038;-72
2023/10/08 04:52:08;;;;;;;4.32;0.30;;;;;;;7.59;nan;100839.13;2090389;28;20025;-71
2023/10/08 04:53:15;;;;;;;0.65;0.20;;;;;;;7.57;nan;100841.28;2098537;28;20183;-71
2023/10/08 04:54:18;;;;;;;0.82;0.30;;;;;;;7.58;nan;100850.09;2091611;28;20164;-71
2023/10/08 04:55:28;;;;;;;0.93;0.28;;;;;;;7.54;nan;100857.81;2098753;28;20028;-71
2023/10/08 04:56:32;;;;;;;1.95;0.30;;;;;;;7.52;nan;100856.47;2083822;28;20033;-71
2023/10/08 04:57:37;;;;;;;0.90;0.20;;;;;;;7.51;nan;100855.66;2092083;28;20080;-72
2023/10/08 04:58:41;;;;;;;1.65;0.30;;;;;;;7.50;nan;100856.69;2099576;28;20017;-72
2023/10/08 04:59:50;;;;;;;2.33;0.40;;;;;;;7.52;nan;100857.25;2099530;28;20128;-72
2023/10/08 05:00:59;;;;;;;1.77;0.20;;;;;;;7.50;nan;100851.34;2099643;28;20033;-70
2023/10/08 05:03:28;;;;;;;2.25;0.25;;;;;;;7.49;nan;100855.09;2099125;28;20041;-72
2023/10/08 05:04:46;;;;;;;1.20;0.40;;;;;;;7.53;nan;100856.19;2100514;28;20036;-73
2023/10/08 05:08:47;;;;;;;1.23;0.13;;;;;;;7.60;nan;100866.72;2113724;28;20017;-73
2023/10/08 05:10:10;;;;;;;1.50;0.38;;;;;;;7.58;nan;100875.00;2115270;28;20139;-73
2023/10/08 05:12:37;;;;;;;0.95;0.50;;;;;;;7.62;nan;100870.75;2114596;28;20147;-73
2023/10/08 05:14:02;;;;;;;0.30;0.22;;;;;;;7.64;nan;100874.00;2101945;28;20151;-73
2023/10/08 05:16:02;;;;;;;0.43;0.28;;;;;;;7.66;nan;100879.09;2105305;28;20098;-72
2023/10/08 05:16:44;;;;;;;0.73;0.30;;;;;;;7.66;nan;100871.06;2107743;28;20036;-73
2023/10/08 05:19:14;;;;;;;0.85;0.30;;;;;;;7.61;nan;100879.03;2098776;28;20982;-74
2023/10/08 05:22:01;;;;;;;1.52;0.40;;;;;;;7.66;nan;100882.59;2103196;28;20036;-73
2023/10/08 05:24:38;;;;;;;0.90;0.20;;;;;;;7.70;nan;100887.44;2109572;28;20039;-73
2023/10/08 05:26:08;;;;;;;0.77;0.35;;;;;;;7.76;nan;100887.25;2113576;28;20031;-73
2023/10/08 05:28:35;;;;;;;1.90;0.40;;;;;;;7.80;nan;100892.91;2095483;28;21361;-72
2023/10/08 05:29:52;;;;;;;2.25;0.30;;;;;;;7.82;nan;100893.47;2089885;28;20036;-72
2023/10/08 05:31:21;;;;;;;1.65;0.28;;;;;;;7.83;nan;100895.88;2091076;28;20034;-73
2023/10/08 05:33:05;;;;;;;1.10;0.32;;;;;;;7.85;nan;100890.28;2087841;28;20072;-73
2023/10/08 05:34:42;;;;;;;0.80;0.20;;;;;;;7.93;nan;100892.50;2089552;28;20032;-72
2023/10/08 05:37:10;;;;;;;1.40;0.38;;;;;;;8.00;nan;100898.44;2106061;28;20083;-72
2023/10/08 05:38:23;;;;;;;1.52;0.63;;;;;;;8.02;nan;100898.22;2105361;28;20945;-73
2023/10/08 05:39:40;;;;;;;2.75;0.60;;;;;;;8.15;nan;100905.03;2096972;28;20042;-73
2023/10/08 05:44:38;;;;;;;2.30;0.40;;;;;;;8.35;nan;100916.75;2104754;28;20721;-72
2023/10/08 05:47:06;;;;;;;1.13;0.50;;;;;;;8.56;nan;100916.94;2100926;28;20025;-73
2023/10/08 05:47:38;;;;;;;1.45;0.40;;;;;;;8.74;nan;100915.72;2089874;28;20037;-72
2023/10/08 05:48:45;;;;;;;1.02;0.30;;;;;;;8.81;nan;100925.16;2088587;28;20073;-72
2023/10/08 05:51:33;;;;;;;2.35;0.30;;;;;;;9.12;nan;100921.88;2095742;28;20803;-73
2023/10/08 05:52:50;;;;;;;0.85;0.35;;;;;;;9.26;nan;100920.31;2096816;28;20025;-73
2023/10/08 05:53:56;;;;;;;0.75;0.30;;;;;;;9.43;nan;100920.97;2084800;28;20875;-73
2023/10/08 05:55:15;;;;;;;1.27;0.22;;;;;;;9.61;nan;100926.91;2089300;28;20935;-73
2023/10/08 05:56:28;;;;;;;0.32;0.20;;;;;;;9.77;nan;100933.16;2093622;28;20041;-73